Time;durP1;ratioP1;P1;durP2;ratioP2;P2;SDS_P1;SDS_P2;PMS_P1;PMS_P2;Temp;Humidity;BMP_temperature;BMP_pressure;BME280_temperature;BME280_humidity;BME280_pressure;Samples;Min_cycle;Max_cycle;Signal;HPM_P1;HPM_P2
2022/01/25 00:15:06;;;;;;;42.50;27.20;;;;;;;6.86;66.51;102984.16;5098751;28;20735;-73
2022/01/25 00:26:39;;;;;;;47.87;28.67;;;;;;;6.04;69.45;102973.88;5103937;28;20413;-72
2022/01/25 00:29:11;;;;;;;55.53;30.97;;;;;;;6.15;68.93;102976.25;5102964;28;20471;-73
2022/01/25 00:31:40;;;;;;;51.27;28.43;;;;;;;6.71;67.60;102971.16;5103145;28;20388;-74
2022/01/25 00:34:06;;;;;;;53.30;31.70;;;;;;;6.51;68.09;102969.03;5099515;28;20495;-71
2022/01/25 00:36:31;;;;;;;54.13;29.33;;;;;;;6.55;68.86;102974.47;5098805;28;20538;-72
2022/01/25 00:38:57;;;;;;;54.97;31.63;;;;;;;6.54;68.58;102972.69;5098574;28;20593;-72
2022/01/25 00:41:23;;;;;;;51.47;31.80;;;;;;;6.98;66.87;102965.84;5098730;28;20221;-71
2022/01/25 00:43:49;;;;;;;56.33;31.77;;;;;;;6.43;68.45;102968.53;5081083;28;20176;-72
2022/01/25 00:46:16;;;;;;;54.50;31.73;;;;;;;6.25;68.77;102968.25;5098412;28;20485;-72
2022/01/25 00:48:44;;;;;;;53.20;32.77;;;;;;;6.28;69.02;102962.38;5098886;28;20377;-72
2022/01/25 00:56:20;;;;;;;61.37;33.77;;;;;;;6.39;68.79;102951.00;5098403;28;20385;-73
2022/01/25 00:58:45;;;;;;;60.83;35.50;;;;;;;6.49;68.38;102960.25;5098248;28;20458;-73
2022/01/25 01:01:11;;;;;;;58.97;34.53;;;;;;;6.52;68.61;102947.47;5098731;28;20168;-72
2022/01/25 01:03:36;;;;;;;61.50;34.57;;;;;;;6.10;69.92;102956.94;5080388;28;20240;-72
2022/01/25 01:06:03;;;;;;;66.90;35.00;;;;;;;6.14;70.03;102962.41;5098079;28;20172;-72
2022/01/25 01:08:28;;;;;;;62.33;34.37;;;;;;;6.20;70.32;102954.16;5098663;28;20217;-72
2022/01/25 01:10:54;;;;;;;68.10;32.80;;;;;;;6.68;67.57;102946.72;5098016;28;20389;-72
2022/01/25 01:16:28;;;;;;;69.83;36.90;;;;;;;6.72;67.50;102954.81;5098673;28;20196;-73
2022/01/25 01:30:06;;;;;;;71.47;36.30;;;;;;;6.18;70.54;102956.63;5097933;28;20687;-72
2022/01/25 01:40:22;;;;;;;63.57;35.10;;;;;;;5.94;70.68;102945.56;5097860;28;20168;-72
2022/01/25 01:43:02;;;;;;;70.30;35.77;;;;;;;5.78;70.89;102945.34;5097675;28;20511;-71
2022/01/25 01:48:26;;;;;;;68.47;35.23;;;;;;;5.82;71.25;102950.84;5097786;28;20640;-71
2022/01/25 01:50:52;;;;;;;67.40;35.77;;;;;;;5.67;71.90;102943.00;5097659;28;20739;-70
2022/01/25 01:53:17;;;;;;;69.43;35.90;;;;;;;5.69;71.75;102943.97;5097477;28;20468;-71
2022/01/25 01:55:42;;;;;;;71.37;36.97;;;;;;;5.73;71.34;102938.19;5097624;28;20208;-72
2022/01/25 01:58:08;;;;;;;70.43;37.40;;;;;;;5.89;72.04;102947.84;5080091;28;20165;-72
2022/01/25 02:00:41;;;;;;;76.50;37.70;;;;;;;6.11;69.99;102953.56;5098129;28;20172;-74
2022/01/25 02:03:07;;;;;;;76.77;37.27;;;;;;;5.76;70.79;102944.38;5100365;28;20200;-72
2022/01/25 02:05:33;;;;;;;71.93;38.33;;;;;;;6.12;69.70;102938.09;5101147;28;20823;-72
2022/01/25 02:08:00;;;;;;;70.90;35.73;;;;;;;6.31;70.06;102941.88;5101168;28;20424;-71
2022/01/25 02:10:25;;;;;;;67.20;36.40;;;;;;;5.95;70.95;102938.69;5101083;28;20476;-72
2022/01/25 02:12:52;;;;;;;69.13;37.43;;;;;;;5.66;71.38;102933.44;5101284;28;20410;-73
2022/01/25 02:15:19;;;;;;;68.30;35.97;;;;;;;5.83;70.89;102941.38;5101036;28;20160;-73
2022/01/25 02:22:58;;;;;;;72.17;37.90;;;;;;;6.04;70.46;102934.13;5100666;28;20496;-72
2022/01/25 02:25:24;;;;;;;68.80;37.67;;;;;;;5.95;70.17;102928.34;5101006;28;20426;-73
2022/01/25 02:27:50;;;;;;;84.33;38.50;;;;;;;5.65;72.28;102920.38;5100668;28;20171;-72
2022/01/25 02:30:15;;;;;;;70.47;40.17;;;;;;;5.77;72.30;102925.47;5100707;28;20649;-72
2022/01/25 02:32:40;;;;;;;73.70;39.20;;;;;;;6.04;70.49;102923.78;5100985;28;20187;-72
2022/01/25 02:35:06;;;;;;;77.23;40.50;;;;;;;5.87;71.93;102928.75;5100674;28;20207;-72
2022/01/25 02:37:31;;;;;;;71.67;37.87;;;;;;;5.72;72.76;102927.75;5100512;28;20242;-72
2022/01/25 02:39:57;;;;;;;73.50;38.83;;;;;;;5.68;72.32;102924.09;5101080;28;20395;-73
2022/01/25 02:42:23;;;;;;;69.57;37.87;;;;;;;6.02;70.88;102923.69;5100328;28;20204;-72
2022/01/25 02:44:48;;;;;;;71.47;38.70;;;;;;;6.34;70.06;102931.69;5100231;28;20400;-72
2022/01/25 02:49:58;;;;;;;80.43;39.90;;;;;;;6.23;69.41;102934.50;5100319;28;20198;-72
2022/01/25 02:52:23;;;;;;;81.00;39.83;;;;;;;6.26;70.17;102927.72;5100437;28;20862;-73
2022/01/25 02:54:50;;;;;;;74.30;40.37;;;;;;;6.31;69.56;102922.03;5100061;28;20347;-73
2022/01/25 02:57:16;;;;;;;75.00;39.63;;;;;;;6.33;70.06;102925.63;5100190;28;20434;-73
2022/01/25 02:59:41;;;;;;;74.97;39.27;;;;;;;6.40;68.98;102925.19;5100731;28;20172;-72
2022/01/25 03:02:07;;;;;;;73.00;38.80;;;;;;;6.17;70.51;102926.34;5099981;28;20456;-72
2022/01/25 03:04:32;;;;;;;72.27;39.93;;;;;;;6.60;68.63;102932.41;5082372;28;20168;-74
2022/01/25 03:06:58;;;;;;;77.40;40.70;;;;;;;6.20;70.33;102931.72;5100599;28;20169;-73
2022/01/25 03:09:23;;;;;;;79.83;38.63;;;;;;;6.49;69.51;102942.09;5100024;28;20180;-72
2022/01/25 03:11:52;;;;;;;81.23;39.90;;;;;;;6.46;69.11;102936.75;5099938;28;20164;-72
2022/01/25 03:14:19;;;;;;;77.10;41.93;;;;;;;6.65;69.16;102929.28;5100088;28;20402;-72
2022/01/25 03:19:42;;;;;;;69.57;38.07;;;;;;;6.07;70.68;102926.56;5099889;28;20400;-73
2022/01/25 03:22:16;;;;;;;73.40;38.33;;;;;;;6.41;69.77;102918.31;5099671;28;20428;-72
2022/01/25 03:24:42;;;;;;;65.63;37.87;;;;;;;6.37;69.74;102921.50;5099742;28;20409;-72
2022/01/25 03:27:08;;;;;;;70.90;37.37;;;;;;;6.02;70.81;102912.41;5099789;28;20430;-72
2022/01/25 03:29:33;;;;;;;73.70;37.87;;;;;;;5.89;71.35;102915.91;5099663;28;20562;-74
2022/01/25 03:31:58;;;;;;;71.50;38.07;;;;;;;6.27;70.84;102914.88;5100062;28;20172;-72
2022/01/25 03:34:24;;;;;;;87.73;39.70;;;;;;;6.33;70.64;102906.56;5099216;28;20263;-72
2022/01/25 03:36:49;;;;;;;74.77;39.07;;;;;;;6.45;69.89;102901.25;5099583;28;20168;-72
2022/01/25 03:39:14;;;;;;;76.93;41.27;;;;;;;6.50;69.39;102898.16;5099792;28;20233;-72
2022/01/25 03:41:40;;;;;;;83.80;40.90;;;;;;;6.11;70.85;102897.47;5099366;28;20538;-72
2022/01/25 03:44:05;;;;;;;76.53;38.97;;;;;;;6.24;71.08;102896.56;5099363;28;20251;-72
2022/01/25 03:51:42;;;;;;;77.70;40.10;;;;;;;6.16;71.19;102879.66;5099124;28;20521;-72
2022/01/25 03:54:07;;;;;;;83.50;41.63;;;;;;;6.12;72.33;102875.97;5098882;28;20485;-73
2022/01/25 03:56:33;;;;;;;79.87;40.20;;;;;;;5.71;73.39;102863.84;5098985;28;20445;-72
2022/01/25 03:58:58;;;;;;;83.63;39.97;;;;;;;5.86;73.02;102871.72;5081891;28;20164;-72
2022/01/25 04:01:24;;;;;;;79.17;39.80;;;;;;;5.77;74.02;102865.94;5098944;28;20599;-72
2022/01/25 04:04:13;;;;;;;82.27;38.83;;;;;;;5.50;74.30;102873.72;5098784;28;20648;-72
2022/01/25 04:06:36;;;;;;;79.60;39.77;;;;;;;5.69;72.89;102870.63;5098093;28;20408;-73
2022/01/25 04:09:05;;;;;;;74.77;37.83;;;;;;;5.70;73.14;102872.41;5098976;28;20455;-73
2022/01/25 04:11:30;;;;;;;80.20;39.23;;;;;;;5.81;72.97;102876.56;5099374;28;20406;-75
2022/01/25 04:13:57;;;;;;;87.73;42.70;;;;;;;5.67;73.68;102878.28;5098781;28;20468;-73
2022/01/25 04:16:29;;;;;;;81.27;39.63;;;;;;;5.89;72.72;102877.06;5099062;28;20172;-73
2022/01/25 04:19:04;;;;;;;77.77;39.40;;;;;;;5.84;72.97;102874.19;5100920;28;20413;-73
2022/01/25 04:26:50;;;;;;;79.80;43.83;;;;;;;5.30;74.42;102878.47;5099903;28;20396;-73
2022/01/25 04:29:15;;;;;;;76.50;40.53;;;;;;;6.02;72.24;102868.41;5099837;28;20389;-72
2022/01/25 04:31:41;;;;;;;80.00;39.27;;;;;;;5.90;73.50;102873.69;5099389;28;20415;-71
2022/01/25 04:36:59;;;;;;;79.47;41.50;;;;;;;5.99;72.57;102865.63;5099236;28;20168;-71
2022/01/25 04:50:42;;;;;;;78.43;40.93;;;;;;;5.67;73.93;102855.00;5098358;28;20440;-72
2022/01/25 04:53:16;;;;;;;84.07;43.17;;;;;;;5.65;74.28;102853.13;5097904;28;20462;-73
2022/01/25 04:56:11;;;;;;;77.83;40.50;;;;;;;5.94;74.26;102861.81;5098249;28;20397;-72
2022/01/25 04:58:36;;;;;;;84.20;42.80;;;;;;;6.13;71.61;102864.81;5097832;28;20475;-72
2022/01/25 05:01:01;;;;;;;83.67;41.20;;;;;;;5.71;73.62;102864.75;5098152;28;20504;-70
2022/01/25 05:03:38;;;;;;;75.00;38.97;;;;;;;5.87;74.31;102870.88;5080450;28;20428;-72
2022/01/25 05:06:10;;;;;;;76.60;39.87;;;;;;;5.67;73.62;102878.28;5080456;28;20236;-71
2022/01/25 05:08:41;;;;;;;82.23;42.80;;;;;;;5.83;72.77;102866.31;5098087;28;20381;-70
2022/01/25 05:13:53;;;;;;;76.30;40.20;;;;;;;5.62;74.18;102869.34;5097829;28;20414;-72
2022/01/25 05:16:33;;;;;;;84.97;40.73;;;;;;;5.98;72.99;102869.00;5097855;28;20415;-72
2022/01/25 05:19:20;;;;;;;81.33;41.90;;;;;;;5.79;73.92;102872.09;5097876;28;20812;-73
2022/01/25 05:24:52;;;;;;;76.73;38.93;;;;;;;5.58;73.81;102877.69;5056234;28;20410;-72
2022/01/25 05:27:21;;;;;;;80.07;43.03;;;;;;;6.00;73.00;102868.31;5056094;28;20955;-72
2022/01/25 05:29:46;;;;;;;81.10;42.73;;;;;;;5.74;73.96;102875.28;5076453;28;20393;-73
2022/01/25 05:32:11;;;;;;;78.63;40.20;;;;;;;5.91;74.27;102870.28;5098331;28;20388;-72
2022/01/25 05:34:37;;;;;;;81.93;43.30;;;;;;;5.78;74.27;102867.72;5097672;28;20439;-72
2022/01/25 05:37:03;;;;;;;80.13;40.90;;;;;;;5.92;73.16;102877.25;5099187;28;20168;-72
2022/01/25 05:39:33;;;;;;;79.13;41.87;;;;;;;6.06;74.04;102867.78;5101891;28;20178;-72
2022/01/25 05:42:16;;;;;;;78.83;41.10;;;;;;;5.73;74.52;102863.13;5084591;28;20456;-73
2022/01/25 05:47:25;;;;;;;79.53;39.33;;;;;;;5.80;74.15;102863.53;5101681;28;20933;-72
2022/01/25 05:49:50;;;;;;;83.90;41.80;;;;;;;5.85;73.71;102867.31;5083831;28;20563;-72
2022/01/25 05:52:16;;;;;;;76.30;40.07;;;;;;;5.57;74.84;102866.47;5101146;28;20519;-72
2022/01/25 05:54:41;;;;;;;74.43;39.43;;;;;;;5.32;75.28;102870.84;5101428;28;20265;-72
2022/01/25 05:57:07;;;;;;;83.13;41.63;;;;;;;5.50;75.30;102868.53;5101791;28;20174;-71
2022/01/25 05:59:32;;;;;;;83.20;41.47;;;;;;;5.39;76.05;102867.84;5083694;28;20194;-72
2022/01/25 06:01:58;;;;;;;76.17;40.80;;;;;;;5.57;75.79;102868.13;5083738;28;20554;-73
2022/01/25 06:04:24;;;;;;;78.63;40.00;;;;;;;5.39;76.30;102863.56;5101419;28;20191;-71
2022/01/25 06:06:49;;;;;;;78.13;40.80;;;;;;;5.63;75.34;102870.22;5101034;28;20271;-71
2022/01/25 06:09:15;;;;;;;79.53;37.90;;;;;;;5.28;76.88;102874.03;5100974;28;20410;-72
2022/01/25 06:11:40;;;;;;;83.20;41.60;;;;;;;5.65;75.60;102877.28;5101701;28;20549;-72
2022/01/25 06:14:06;;;;;;;81.17;41.10;;;;;;;5.61;75.44;102867.53;5100988;28;20176;-72
2022/01/25 06:16:32;;;;;;;74.70;39.70;;;;;;;5.24;77.10;102867.75;5101000;28;20167;-72
2022/01/25 06:18:58;;;;;;;78.80;39.43;;;;;;;5.67;75.40;102857.59;5101767;28;20873;-72
2022/01/25 06:21:23;;;;;;;80.03;40.67;;;;;;;5.62;76.39;102858.97;5101003;28;20211;-73
2022/01/25 06:23:49;;;;;;;82.07;41.03;;;;;;;5.49;76.90;102867.63;5100531;28;20882;-73
2022/01/25 06:26:14;;;;;;;82.50;39.80;;;;;;;5.55;76.25;102862.88;5101294;28;20525;-72
2022/01/25 06:28:40;;;;;;;82.80;39.90;;;;;;;6.05;73.95;102866.03;5100640;28;20176;-73
2022/01/25 06:31:07;;;;;;;87.57;42.00;;;;;;;5.56;76.05;102863.75;5100612;28;20176;-71
2022/01/25 06:33:32;;;;;;;88.87;42.27;;;;;;;6.01;75.09;102870.09;5100753;28;20167;-73
2022/01/25 06:35:57;;;;;;;85.97;40.87;;;;;;;5.51;75.88;102867.75;5100142;28;20388;-72
2022/01/25 06:38:23;;;;;;;86.30;41.70;;;;;;;5.85;76.13;102868.22;5100507;28;20191;-72
2022/01/25 06:40:48;;;;;;;80.67;42.47;;;;;;;5.99;75.23;102861.34;5100889;28;20172;-72
2022/01/25 06:43:13;;;;;;;77.90;41.60;;;;;;;5.64;76.37;102852.22;5100136;28;20577;-73
2022/01/25 06:45:41;;;;;;;82.23;41.77;;;;;;;5.80;76.46;102855.78;5100526;28;20194;-72
2022/01/25 06:48:07;;;;;;;80.40;39.53;;;;;;;5.70;76.32;102851.72;5100510;28;20180;-72
2022/01/25 06:50:33;;;;;;;80.40;39.37;;;;;;;5.63;77.06;102853.03;5082525;28;20557;-72
2022/01/25 06:52:58;;;;;;;75.90;38.93;;;;;;;5.54;77.17;102861.06;5099806;28;20433;-73
2022/01/25 06:55:23;;;;;;;76.80;40.50;;;;;;;5.69;76.24;102863.75;5100765;28;20395;-71
2022/01/25 06:57:48;;;;;;;73.80;39.30;;;;;;;5.88;75.05;102865.81;5100176;28;20172;-71
2022/01/25 07:00:17;;;;;;;74.80;39.50;;;;;;;6.02;75.04;102871.00;5100237;28;20255;-72
2022/01/25 07:02:43;;;;;;;77.40;38.60;;;;;;;5.70;76.11;102868.13;5100441;28;20206;-71
2022/01/25 07:05:09;;;;;;;74.80;40.23;;;;;;;5.81;76.20;102870.50;5099805;28;20493;-73
2022/01/25 07:07:35;;;;;;;73.00;40.80;;;;;;;5.81;76.46;102871.41;5099832;28;20458;-72
2022/01/25 07:10:00;;;;;;;74.17;39.13;;;;;;;5.96;75.19;102870.59;5100401;28;20673;-72
2022/01/25 07:12:26;;;;;;;83.77;42.23;;;;;;;5.74;76.05;102872.69;5099902;28;20393;-73
2022/01/25 07:14:51;;;;;;;71.70;37.80;;;;;;;5.95;75.71;102885.22;5099719;28;20563;-72
2022/01/25 07:17:17;;;;;;;77.07;41.33;;;;;;;6.18;74.92;102880.63;5100379;28;20176;-72
2022/01/25 07:19:42;;;;;;;72.40;39.00;;;;;;;6.44;73.93;102879.66;5099993;28;20180;-73
2022/01/25 07:22:07;;;;;;;77.00;40.27;;;;;;;6.35;75.07;102871.31;5099795;28;20192;-72
2022/01/25 07:24:33;;;;;;;77.50;37.90;;;;;;;5.59;77.15;102874.31;5100255;28;20206;-73
2022/01/25 07:26:58;;;;;;;72.33;37.53;;;;;;;5.78;76.45;102876.38;5099695;28;20168;-72
2022/01/25 07:29:24;;;;;;;78.53;40.67;;;;;;;5.58;78.08;102882.88;5099504;28;20168;-72
2022/01/25 07:31:49;;;;;;;63.30;35.43;;;;;;;5.63;78.40;102886.66;5099895;28;20538;-72
2022/01/25 07:34:15;;;;;;;69.70;40.03;;;;;;;5.94;76.44;102883.44;5099406;28;20176;-72
2022/01/25 07:36:42;;;;;;;73.27;37.50;;;;;;;6.18;76.39;102885.78;5099553;28;20184;-73
2022/01/25 07:39:08;;;;;;;74.60;38.23;;;;;;;5.70;78.59;102882.78;5099872;28;20430;-72
2022/01/25 07:41:33;;;;;;;82.20;39.03;;;;;;;5.60;78.45;102889.03;5099390;28;20407;-72
2022/01/25 07:43:59;;;;;;;70.50;38.60;;;;;;;5.87;77.93;102884.75;5099240;28;20436;-72
2022/01/25 07:46:25;;;;;;;72.37;37.77;;;;;;;5.80;78.89;102889.44;5099816;28;20192;-74
2022/01/25 07:48:50;;;;;;;71.63;37.20;;;;;;;5.89;77.89;102890.91;5099156;28;20422;-71
2022/01/25 07:51:15;;;;;;;78.50;39.70;;;;;;;6.07;77.63;102893.81;5099225;28;20196;-72
2022/01/25 07:53:41;;;;;;;67.87;39.27;;;;;;;6.05;78.13;102897.97;5099075;28;20238;-75
2022/01/25 07:56:06;;;;;;;80.43;37.93;;;;;;;6.27;77.27;102894.16;5104075;28;20172;-72
2022/01/25 07:58:31;;;;;;;71.27;37.33;;;;;;;6.02;77.60;102897.78;5115226;28;20179;-74
2022/01/25 08:00:57;;;;;;;74.47;37.23;;;;;;;6.59;76.49;102895.25;5100325;28;20207;-71
2022/01/25 08:03:22;;;;;;;72.93;37.70;;;;;;;5.90;77.11;102895.28;5101494;28;20231;-71
2022/01/25 08:05:50;;;;;;;66.87;36.33;;;;;;;6.33;77.73;102894.53;5119673;28;20216;-72
2022/01/25 08:08:16;;;;;;;64.57;36.40;;;;;;;5.94;78.59;102892.88;5119208;28;20250;-71
2022/01/25 08:10:41;;;;;;;76.00;37.00;;;;;;;5.89;78.47;102893.50;5119215;28;20441;-72
2022/01/25 08:13:06;;;;;;;74.90;38.70;;;;;;;6.39;76.65;102900.06;5106307;28;20176;-71
2022/01/25 08:15:32;;;;;;;69.70;36.90;;;;;;;6.13;77.68;102901.06;5098730;28;20179;-70
2022/01/25 08:17:57;;;;;;;69.60;36.90;;;;;;;6.67;76.09;102890.50;5098547;28;20231;-71
2022/01/25 08:20:22;;;;;;;72.30;37.57;;;;;;;6.58;76.33;102894.31;5099151;28;20178;-73
2022/01/25 08:22:48;;;;;;;74.63;36.63;;;;;;;6.34;77.29;102891.13;5098443;28;20204;-76
2022/01/25 08:25:13;;;;;;;72.87;37.83;;;;;;;6.60;76.36;102896.13;5098612;28;20204;-74
2022/01/25 08:27:38;;;;;;;78.60;40.47;;;;;;;6.35;77.01;102892.91;5098898;28;20177;-75
2022/01/25 08:30:04;;;;;;;70.83;36.10;;;;;;;6.61;77.01;102901.41;5110501;28;20539;-74
2022/01/25 08:32:29;;;;;;;69.03;37.80;;;;;;;6.17;77.58;102905.63;5118552;28;20251;-77
2022/01/25 08:34:55;;;;;;;64.50;35.83;;;;;;;6.09;77.75;102900.75;5119116;28;20380;-75
2022/01/25 08:37:20;;;;;;;74.40;37.00;;;;;;;6.25;78.43;102898.31;5118804;28;20210;-73
2022/01/25 08:39:46;;;;;;;72.27;38.63;;;;;;;6.48;77.45;102899.75;5118770;28;20498;-76
2022/01/25 08:42:11;;;;;;;73.50;38.80;;;;;;;6.47;77.01;102903.16;5118959;28;20580;-77
2022/01/25 08:44:37;;;;;;;69.30;35.90;;;;;;;6.34;77.86;102906.66;5101011;28;20541;-78
2022/01/25 08:47:03;;;;;;;71.47;36.50;;;;;;;6.16;79.43;102905.53;5101209;28;20633;-77
2022/01/25 08:49:30;;;;;;;69.57;36.67;;;;;;;6.23;78.60;102907.72;5119368;28;20457;-77
2022/01/25 08:51:55;;;;;;;69.40;37.67;;;;;;;6.39;78.04;102899.19;5117290;28;20467;-75
2022/01/25 08:54:21;;;;;;;70.50;36.07;;;;;;;6.25;77.58;102903.50;5098200;28;20418;-73
2022/01/25 08:56:47;;;;;;;71.13;36.67;;;;;;;6.16;78.80;102908.13;5098778;28;20606;-75
2022/01/25 08:59:12;;;;;;;69.50;37.27;;;;;;;6.48;78.25;102896.25;5098192;28;20501;-75
2022/01/25 09:01:37;;;;;;;64.90;36.33;;;;;;;6.45;77.97;102903.84;5097949;28;20228;-71
2022/01/25 09:04:03;;;;;;;64.67;35.80;;;;;;;6.47;77.89;102912.59;5087759;28;20250;-74
2022/01/25 09:06:29;;;;;;;72.77;39.70;;;;;;;6.18;78.92;102909.09;5060893;28;20177;-74
2022/01/25 09:09:07;;;;;;;66.87;35.57;;;;;;;6.43;78.56;102906.34;5078148;28;20512;-75
2022/01/25 09:11:32;;;;;;;76.27;40.27;;;;;;;6.61;78.38;102909.16;5080075;28;20447;-74
2022/01/25 09:13:57;;;;;;;72.70;36.17;;;;;;;6.35;78.30;102920.53;5081713;28;20427;-75
2022/01/25 09:16:23;;;;;;;65.23;33.90;;;;;;;6.20;78.72;102917.88;5082269;28;20169;-72
2022/01/25 09:18:48;;;;;;;78.07;38.13;;;;;;;6.57;77.83;102914.97;5081940;28;20177;-70
2022/01/25 09:21:13;;;;;;;70.90;36.80;;;;;;;6.26;79.07;102920.84;5081730;28;20234;-71
2022/01/25 09:23:39;;;;;;;69.50;38.60;;;;;;;6.31;78.26;102914.25;5081939;28;20227;-71
2022/01/25 09:26:04;;;;;;;62.83;35.10;;;;;;;6.57;78.28;102914.97;5081705;28;20558;-70
2022/01/25 09:28:30;;;;;;;66.30;37.00;;;;;;;6.18;78.99;102914.28;5081545;28;20169;-70
2022/01/25 09:30:56;;;;;;;64.60;33.53;;;;;;;6.20;80.60;102917.88;5081891;28;20168;-70
2022/01/25 09:33:23;;;;;;;62.07;33.93;;;;;;;6.61;78.19;102909.16;5081391;28;20208;-72
2022/01/25 09:35:49;;;;;;;65.80;36.67;;;;;;;6.19;80.57;102916.09;5064124;28;20435;-71
2022/01/25 09:38:15;;;;;;;70.43;36.37;;;;;;;6.57;78.58;102915.84;5082362;28;20407;-71
2022/01/25 09:40:40;;;;;;;66.20;36.50;;;;;;;6.80;78.00;102907.69;5081567;28;20390;-71
2022/01/25 09:43:07;;;;;;;71.97;36.60;;;;;;;6.61;78.20;102911.75;5081209;28;20197;-71
2022/01/25 09:45:33;;;;;;;70.23;37.10;;;;;;;6.49;78.90;102918.78;5082121;28;20171;-71
2022/01/25 09:47:58;;;;;;;67.83;35.33;;;;;;;6.80;77.95;102912.88;5081266;28;20480;-72
2022/01/25 09:50:24;;;;;;;69.87;34.73;;;;;;;6.70;77.49;102916.63;5081267;28;20431;-70
2022/01/25 09:52:50;;;;;;;70.90;37.60;;;;;;;6.85;78.08;102911.47;5081438;28;20213;-77
2022/01/25 09:55:18;;;;;;;67.40;34.17;;;;;;;6.60;77.88;102915.16;5081213;28;20507;-70
2022/01/25 09:57:43;;;;;;;76.77;37.10;;;;;;;6.45;78.29;102920.28;5081041;28;20410;-71
2022/01/25 10:00:11;;;;;;;66.90;35.27;;;;;;;6.59;78.68;102921.16;5080970;28;20434;-71
2022/01/25 10:05:45;;;;;;;67.97;35.47;;;;;;;6.27;80.85;102922.63;5066198;28;20413;-72
2022/01/25 10:08:13;;;;;;;66.80;34.63;;;;;;;5.95;80.96;102929.22;5080961;28;20382;-73
2022/01/25 10:10:50;;;;;;;59.20;33.10;;;;;;;6.05;80.45;102921.28;5080831;28;20438;-75
2022/01/25 10:13:20;;;;;;;61.37;34.60;;;;;;;6.71;78.79;102916.72;5080618;28;20406;-75
2022/01/25 10:15:46;;;;;;;65.13;35.20;;;;;;;6.91;77.84;102909.22;5080774;28;20454;-74
2022/01/25 10:18:11;;;;;;;68.33;34.70;;;;;;;6.89;78.24;102913.44;5080693;28;20509;-74
2022/01/25 10:20:42;;;;;;;70.83;38.70;;;;;;;6.96;77.62;102902.63;5080915;28;20161;-76
2022/01/25 10:23:18;;;;;;;56.80;32.13;;;;;;;6.19;79.82;102910.91;5079566;28;20204;-74
2022/01/25 10:25:46;;;;;;;59.93;34.60;;;;;;;6.71;79.29;102914.13;5080502;28;20415;-72
2022/01/25 10:28:13;;;;;;;58.57;33.90;;;;;;;6.69;78.83;102914.81;5087371;28;20422;-72
2022/01/25 10:30:56;;;;;;;56.63;31.80;;;;;;;7.23;77.43;102920.63;5097264;28;20497;-73
2022/01/25 10:33:36;;;;;;;51.60;30.70;;;;;;;7.24;76.91;102914.63;5063053;28;20418;-73
2022/01/25 10:36:14;;;;;;;59.27;33.07;;;;;;;7.50;76.83;102907.47;5088609;28;20414;-73
2022/01/25 10:38:41;;;;;;;52.13;29.90;;;;;;;6.87;77.74;102907.25;5101192;28;20412;-78
2022/01/25 10:41:10;;;;;;;49.40;30.87;;;;;;;7.17;77.69;102910.78;5053520;28;20492;-76
2022/01/25 10:43:37;;;;;;;52.27;29.40;;;;;;;7.05;77.66;102902.28;5085455;28;20546;-74
2022/01/25 10:46:11;;;;;;;49.03;27.70;;;;;;;6.68;78.80;102913.91;5080290;28;20407;-76
2022/01/25 10:48:38;;;;;;;50.67;29.47;;;;;;;6.59;78.69;102910.78;5089949;28;20385;-71
2022/01/25 10:51:09;;;;;;;53.57;30.53;;;;;;;7.12;78.33;102907.03;5085886;28;20429;-73
2022/01/25 10:53:35;;;;;;;51.17;29.23;;;;;;;6.85;77.84;102911.47;5080847;28;20466;-73
2022/01/25 10:56:01;;;;;;;50.27;30.03;;;;;;;7.18;77.64;102907.34;5081397;28;20435;-71
2022/01/25 10:58:27;;;;;;;51.33;29.23;;;;;;;6.95;78.74;102902.53;5080751;28;20172;-77
2022/01/25 11:00:53;;;;;;;44.47;27.40;;;;;;;6.61;78.94;102906.56;5080257;28;20193;-74
2022/01/25 11:03:32;;;;;;;47.43;28.93;;;;;;;7.01;78.19;102908.97;5084616;28;20479;-79
2022/01/25 11:06:15;;;;;;;48.90;28.17;;;;;;;6.66;78.92;102909.47;5100327;28;20263;-73
2022/01/25 11:08:42;;;;;;;46.60;27.43;;;;;;;6.33;80.81;102910.09;5099788;28;20414;-72
2022/01/25 11:11:10;;;;;;;50.33;29.70;;;;;;;6.59;80.61;102908.19;5100122;28;20411;-72
2022/01/25 11:13:39;;;;;;;52.40;29.07;;;;;;;6.99;78.92;102902.78;5099785;28;20413;-75
2022/01/25 11:16:06;;;;;;;47.47;28.87;;;;;;;6.58;80.15;102902.09;5100549;28;20534;-75
2022/01/25 11:18:32;;;;;;;45.20;28.73;;;;;;;6.95;78.79;102890.44;5100099;28;20475;-76
2022/01/25 11:21:04;;;;;;;54.90;29.60;;;;;;;7.06;78.60;102891.09;5100019;28;20393;-76
2022/01/25 11:23:34;;;;;;;50.80;29.77;;;;;;;6.93;78.82;102886.88;5082248;28;20466;-75
2022/01/25 11:26:02;;;;;;;54.17;32.10;;;;;;;7.25;77.63;102886.19;5099752;28;20466;-75
2022/01/25 11:28:30;;;;;;;47.00;29.17;;;;;;;7.48;77.66;102872.72;5082631;28;20803;-72
2022/01/25 11:30:56;;;;;;;48.33;27.63;;;;;;;7.26;77.04;102871.50;5099645;28;20415;-72
2022/01/25 11:33:21;;;;;;;55.07;30.30;;;;;;;7.01;78.57;102875.25;5099282;28;20385;-73
2022/01/25 11:35:49;;;;;;;49.13;30.57;;;;;;;7.59;76.93;102858.66;5081254;28;20209;-71
2022/01/25 11:38:14;;;;;;;50.80;29.97;;;;;;;7.29;77.80;102866.47;5082091;28;20176;-72
2022/01/25 11:40:45;;;;;;;43.60;27.70;;;;;;;7.13;78.67;102871.59;5099398;28;20410;-72
2022/01/25 11:43:13;;;;;;;53.50;29.90;;;;;;;6.90;78.66;102868.53;5099698;28;20199;-71
2022/01/25 11:45:41;;;;;;;48.23;29.00;;;;;;;7.23;78.39;102860.94;5099321;28;20664;-71
2022/01/25 11:48:07;;;;;;;54.27;29.40;;;;;;;6.88;79.01;102864.97;5099261;28;20439;-71
2022/01/25 11:50:43;;;;;;;48.67;29.50;;;;;;;7.35;77.89;102855.56;5099566;28;20521;-71
2022/01/25 11:53:13;;;;;;;51.67;28.87;;;;;;;7.06;78.71;102855.69;5099032;28;20272;-71
2022/01/25 11:55:51;;;;;;;50.57;28.30;;;;;;;7.05;79.41;102858.19;5099098;28;20659;-70
2022/01/25 11:58:32;;;;;;;46.97;28.00;;;;;;;7.01;79.28;102858.78;5099065;28;20392;-70
2022/01/25 12:01:03;;;;;;;53.47;28.40;;;;;;;7.08;79.43;102848.88;5098787;28;20388;-73
2022/01/25 12:03:40;;;;;;;48.37;28.13;;;;;;;6.86;80.58;102851.91;5075234;28;20499;-75
2022/01/25 12:06:11;;;;;;;45.10;28.30;;;;;;;7.43;78.93;102838.75;5061675;28;20445;-72
2022/01/25 12:08:41;;;;;;;42.77;26.20;;;;;;;6.97;79.37;102837.00;5078628;28;20435;-74
2022/01/25 12:11:31;;;;;;;47.00;27.77;;;;;;;7.61;78.20;102831.06;5078610;28;20419;-76
2022/01/25 12:14:17;;;;;;;45.90;28.97;;;;;;;7.42;77.49;102830.03;5078487;28;20419;-77
2022/01/25 12:16:45;;;;;;;49.13;27.03;;;;;;;7.24;79.40;102831.63;5079528;28;20449;-76
2022/01/25 12:19:34;;;;;;;50.53;28.00;;;;;;;7.60;78.32;102824.09;5061329;28;20411;-76
2022/01/25 12:22:06;;;;;;;45.10;25.40;;;;;;;7.34;78.58;102826.13;5064359;28;20398;-72
2022/01/25 12:24:40;;;;;;;46.40;26.00;;;;;;;7.15;79.04;102824.19;5078431;28;20423;-72
2022/01/25 12:29:43;;;;;;;41.10;25.57;;;;;;;7.46;78.30;102820.72;5078345;28;20480;-70
2022/01/25 12:32:17;;;;;;;46.23;26.37;;;;;;;7.76;76.96;102812.84;5078267;28;20426;-75
2022/01/25 12:34:57;;;;;;;45.87;26.23;;;;;;;7.68;77.06;102817.63;5079578;28;20407;-70
2022/01/25 12:37:44;;;;;;;42.07;25.47;;;;;;;7.72;77.47;102822.16;5078556;28;20381;-73
2022/01/25 12:40:26;;;;;;;38.23;24.23;;;;;;;7.39;79.37;102814.31;5078242;28;20380;-72
2022/01/25 12:43:03;;;;;;;37.93;24.10;;;;;;;7.32;78.50;102817.38;5078122;28;20425;-73
2022/01/25 12:45:46;;;;;;;39.73;23.83;;;;;;;6.83;80.30;102815.47;5078067;28;20508;-77
2022/01/25 12:48:15;;;;;;;40.07;24.03;;;;;;;7.57;78.92;102810.94;5078217;28;20646;-78
2022/01/25 12:50:43;;;;;;;18.60;13.87;;;;;;;11.84;71.28;102788.97;5102265;28;20416;-57
2022/01/25 12:53:10;;;;;;;22.80;16.77;;;;;;;12.30;63.84;102780.25;5124704;28;20434;-60
2022/01/25 12:55:39;;;;;;;30.50;19.00;;;;;;;10.86;66.23;102792.13;5124769;28;20443;-58
2022/01/25 12:58:06;;;;;;;26.37;19.27;;;;;;;9.96;69.79;102803.88;5122240;28;20520;-58
2022/01/25 13:00:38;;;;;;;31.00;20.90;;;;;;;8.48;71.88;102810.63;5117487;28;20815;-72
2022/01/25 13:03:19;;;;;;;31.67;21.33;;;;;;;8.21;73.76;102807.44;5118219;28;20435;-73